Time;durP1;ratioP1;P1;durP2;ratioP2;P2;SDS_P1;SDS_P2;PMS_P1;PMS_P2;Temp;Humidity;BMP_temperature;BMP_pressure;BME280_temperature;BME280_humidity;BME280_pressure;Samples;Min_cycle;Max_cycle;Signal;HPM_P1;HPM_P2
2023/10/17 00:02:11;;;;;;;3.35;0.70;;;18.00;96.70;;;;;;4992389;28;20042;-80
2023/10/17 00:04:41;;;;;;;4.25;1.05;;;17.90;96.70;;;;;;4998360;28;22352;-80
2023/10/17 00:07:12;;;;;;;2.80;0.80;;;17.90;96.70;;;;;;5003092;28;20056;-81
2023/10/17 00:09:42;;;;;;;4.05;0.70;;;18.00;96.70;;;;;;5001866;28;20492;-80
2023/10/17 00:17:21;;;;;;;2.80;0.63;;;18.00;96.70;;;;;;4993704;28;20068;-81
2023/10/17 00:19:50;;;;;;;3.58;0.60;;;18.00;96.70;;;;;;4993340;28;20125;-80
2023/10/17 00:22:23;;;;;;;2.22;0.70;;;18.00;96.70;;;;;;4997888;28;20070;-81
2023/10/17 00:24:55;;;;;;;2.47;0.80;;;18.00;96.70;;;;;;4998765;28;20137;-81
2023/10/17 00:27:26;;;;;;;3.17;0.88;;;18.00;96.70;;;;;;4993328;28;20147;-81
2023/10/17 00:29:54;;;;;;;4.45;0.88;;;18.00;96.70;;;;;;4985470;28;20046;-80
2023/10/17 00:32:23;;;;;;;5.35;0.80;;;18.00;96.70;;;;;;4999864;28;20496;-80
2023/10/17 00:34:54;;;;;;;4.47;0.80;;;18.10;96.70;;;;;;4986623;28;20617;-80
2023/10/17 00:37:30;;;;;;;2.53;0.60;;;18.00;96.70;;;;;;5003544;28;20129;-80
2023/10/17 00:39:59;;;;;;;1.98;0.70;;;18.10;96.70;;;;;;4977959;28;20141;-81
2023/10/17 00:42:29;;;;;;;2.63;0.98;;;18.10;96.70;;;;;;4997392;28;20030;-80
2023/10/17 00:44:58;;;;;;;2.97;0.88;;;18.10;96.70;;;;;;4994997;28;20057;-80
2023/10/17 00:47:27;;;;;;;2.40;0.70;;;18.10;96.70;;;;;;4994799;28;20054;-80
2023/10/17 00:49:59;;;;;;;1.90;0.93;;;18.10;96.70;;;;;;4997915;28;20172;-80
2023/10/17 00:52:32;;;;;;;3.35;1.13;;;18.10;96.70;;;;;;4976925;28;20149;-79
2023/10/17 00:55:03;;;;;;;5.00;0.80;;;18.10;96.70;;;;;;4994307;28;20050;-81
2023/10/17 00:57:32;;;;;;;3.63;1.60;;;18.10;96.70;;;;;;4992121;28;20042;-81
2023/10/17 01:03:11;;;;;;;2.38;0.60;;;18.10;96.70;;;;;;4954319;28;20051;-80
2023/10/17 01:05:48;;;;;;;2.63;0.50;;;18.10;96.70;;;;;;4955338;28;20062;-80
2023/10/17 01:08:18;;;;;;;2.08;0.77;;;18.10;96.70;;;;;;4942726;28;20521;-81
2023/10/17 01:10:48;;;;;;;2.63;0.70;;;18.10;96.70;;;;;;4926471;28;20144;-80
2023/10/17 01:13:16;;;;;;;1.65;0.40;;;18.10;96.70;;;;;;4936026;28;20725;-80
2023/10/17 01:15:44;;;;;;;2.92;0.55;;;18.20;96.70;;;;;;4937325;29;20098;-80
2023/10/17 01:18:13;;;;;;;2.85;0.63;;;18.10;96.70;;;;;;4956479;28;20058;-80
2023/10/17 01:20:41;;;;;;;1.30;0.40;;;18.10;96.70;;;;;;4951528;28;20065;-81
2023/10/17 01:23:10;;;;;;;2.65;0.80;;;18.10;96.70;;;;;;4919104;29;20709;-81
2023/10/17 01:25:42;;;;;;;3.63;0.98;;;18.10;96.70;;;;;;4957049;28;20575;-81
2023/10/17 01:28:10;;;;;;;2.53;0.60;;;18.10;96.70;;;;;;4942472;28;20054;-80
2023/10/17 01:30:41;;;;;;;2.10;0.57;;;18.00;96.70;;;;;;4946998;28;20046;-80
2023/10/17 01:33:09;;;;;;;2.30;0.50;;;18.00;96.70;;;;;;4954955;28;20074;-80
2023/10/17 01:35:40;;;;;;;1.83;0.55;;;18.00;96.70;;;;;;4966800;28;20590;-80
2023/10/17 01:38:09;;;;;;;1.50;0.57;;;18.00;96.70;;;;;;4994808;28;20049;-80
2023/10/17 01:40:37;;;;;;;3.00;0.60;;;18.00;96.70;;;;;;4994106;28;20046;-80
2023/10/17 01:43:07;;;;;;;2.67;0.63;;;18.10;96.70;;;;;;5004570;28;20427;-80
2023/10/17 01:45:37;;;;;;;1.60;0.60;;;18.10;96.70;;;;;;5003115;28;20054;-80
2023/10/17 01:48:10;;;;;;;2.95;0.57;;;18.10;96.70;;;;;;4987122;28;20137;-80
2023/10/17 01:50:39;;;;;;;2.55;0.55;;;18.10;96.70;;;;;;4986611;28;20140;-81
2023/10/17 01:53:12;;;;;;;2.28;0.50;;;18.00;96.70;;;;;;4991951;28;20125;-80
2023/10/17 01:55:42;;;;;;;1.10;0.45;;;18.00;96.70;;;;;;5006301;28;20066;-81
2023/10/17 01:58:15;;;;;;;2.67;0.50;;;18.00;96.70;;;;;;4985243;28;20037;-80
2023/10/17 02:00:44;;;;;;;2.92;0.80;;;18.00;96.70;;;;;;4991545;28;20104;-80
2023/10/17 02:03:12;;;;;;;3.47;0.70;;;18.00;96.70;;;;;;5002873;28;20038;-80
2023/10/17 02:05:41;;;;;;;1.25;0.65;;;17.90;96.70;;;;;;4976035;28;20050;-81
2023/10/17 02:08:11;;;;;;;1.08;0.50;;;17.90;96.70;;;;;;4996210;28;20061;-80
2023/10/17 02:10:40;;;;;;;4.30;0.88;;;17.90;96.70;;;;;;5000585;28;20065;-80
2023/10/17 02:13:08;;;;;;;4.63;0.95;;;17.90;96.70;;;;;;4988609;28;20052;-80
2023/10/17 02:15:38;;;;;;;2.30;0.68;;;17.80;96.70;;;;;;4993822;28;20512;-81
2023/10/17 02:18:14;;;;;;;1.83;0.70;;;17.80;96.70;;;;;;4997428;28;20038;-80
2023/10/17 02:20:52;;;;;;;1.83;0.60;;;17.80;96.70;;;;;;4999109;28;20061;-79
2023/10/17 02:23:25;;;;;;;1.95;0.60;;;17.80;96.70;;;;;;4986995;28;20140;-79
2023/10/17 02:25:55;;;;;;;2.65;0.60;;;17.80;96.70;;;;;;4987100;28;20508;-81
2023/10/17 02:28:24;;;;;;;1.92;0.80;;;17.70;96.70;;;;;;4998865;28;20153;-81
2023/10/17 02:30:58;;;;;;;2.15;0.63;;;17.70;96.70;;;;;;4977663;28;20516;-80
2023/10/17 02:33:28;;;;;;;2.35;0.47;;;17.60;96.70;;;;;;4996002;28;20053;-80
2023/10/17 02:36:08;;;;;;;1.55;0.68;;;17.60;96.70;;;;;;4996909;28;20104;-80
2023/10/17 02:38:37;;;;;;;2.67;0.65;;;17.60;96.70;;;;;;4994725;28;20150;-79
2023/10/17 02:41:08;;;;;;;2.15;0.70;;;17.60;96.70;;;;;;4996446;28;20042;-79
2023/10/17 02:43:40;;;;;;;3.33;0.73;;;17.60;96.70;;;;;;5003616;28;20506;-79
2023/10/17 02:46:12;;;;;;;1.98;0.68;;;17.50;96.70;;;;;;4995776;28;20138;-79
2023/10/17 02:48:42;;;;;;;1.50;0.50;;;17.50;96.70;;;;;;4997452;28;20527;-79
2023/10/17 02:51:18;;;;;;;1.40;0.70;;;17.50;96.70;;;;;;5002762;28;20119;-80
2023/10/17 02:53:50;;;;;;;1.30;0.60;;;17.50;96.70;;;;;;5001158;28;20045;-82
2023/10/17 02:56:19;;;;;;;2.50;0.60;;;17.60;96.70;;;;;;4994469;28;20054;-80
2023/10/17 02:58:50;;;;;;;1.02;0.50;;;17.60;96.70;;;;;;5002872;28;20097;-80
2023/10/17 03:01:22;;;;;;;4.10;0.68;;;17.60;96.70;;;;;;4996805;28;20050;-81
2023/10/17 03:03:51;;;;;;;1.42;0.50;;;17.50;96.70;;;;;;5001454;28;20452;-81
2023/10/17 03:06:20;;;;;;;2.22;0.60;;;17.50;96.70;;;;;;4987049;28;20034;-81
2023/10/17 03:08:51;;;;;;;2.95;0.70;;;17.50;96.70;;;;;;4969275;28;20412;-80
2023/10/17 03:11:47;;;;;;;2.22;0.57;;;17.40;96.70;;;;;;4990033;28;20100;-80
2023/10/17 03:14:19;;;;;;;1.30;0.55;;;17.40;96.70;;;;;;4995809;28;20070;-81
2023/10/17 03:16:52;;;;;;;2.00;0.55;;;17.50;96.70;;;;;;4998436;28;20050;-81
2023/10/17 03:19:25;;;;;;;4.22;0.80;;;17.50;96.70;;;;;;4984513;28;20050;-81
2023/10/17 03:22:39;;;;;;;2.75;0.52;;;17.50;96.70;;;;;;4994074;28;20158;-81
2023/10/17 03:24:59;;;;;;;1.80;0.80;;;17.50;96.70;;;;;;4993498;28;20177;-80
2023/10/17 03:27:37;;;;;;;3.25;0.70;;;17.50;96.70;;;;;;5004357;28;20046;-81
2023/10/17 03:30:14;;;;;;;1.58;0.60;;;17.50;96.70;;;;;;5001300;28;20569;-80
2023/10/17 03:35:56;;;;;;;1.25;0.60;;;17.40;96.70;;;;;;4955285;28;20062;-80
2023/10/17 03:38:26;;;;;;;1.77;0.60;;;17.40;96.70;;;;;;4958084;28;20102;-81
2023/10/17 03:41:01;;;;;;;1.17;0.50;;;17.50;96.70;;;;;;4940683;28;20065;-80
2023/10/17 03:43:37;;;;;;;2.60;0.82;;;17.50;96.70;;;;;;4942914;28;20081;-81
2023/10/17 03:46:07;;;;;;;2.00;0.45;;;17.50;96.70;;;;;;4949146;28;20813;-80
2023/10/17 03:48:36;;;;;;;1.05;0.40;;;17.40;96.70;;;;;;4943817;28;20686;-79
2023/10/17 03:51:15;;;;;;;0.95;0.43;;;17.40;96.70;;;;;;4959464;28;20051;-80
2023/10/17 03:53:47;;;;;;;1.33;0.40;;;17.40;96.70;;;;;;4952440;28;20533;-79
2023/10/17 03:56:24;;;;;;;2.60;0.55;;;17.40;96.70;;;;;;4959517;28;20051;-80
2023/10/17 04:01:39;;;;;;;;;;;17.40;96.70;;;;;;4945112;28;20604;-81
2023/10/17 04:04:09;;;;;;;4.43;1.23;;;17.40;96.70;;;;;;4950093;28;20012;-81
2023/10/17 04:06:56;;;;;;;2.03;0.70;;;17.40;96.70;;;;;;4941231;28;20073;-80
2023/10/17 04:09:27;;;;;;;1.77;0.65;;;17.40;96.70;;;;;;4955621;28;20090;-80
2023/10/17 04:11:58;;;;;;;1.40;0.57;;;17.50;96.70;;;;;;4961853;28;20104;-80
2023/10/17 04:14:33;;;;;;;2.05;0.40;;;17.40;96.70;;;;;;4986255;28;20046;-79
2023/10/17 04:17:05;;;;;;;1.80;0.47;;;17.50;96.70;;;;;;4987535;28;20473;-81
2023/10/17 04:19:39;;;;;;;0.95;0.50;;;17.50;96.70;;;;;;4996385;28;20053;-80
2023/10/17 04:22:08;;;;;;;4.72;0.70;;;17.40;96.70;;;;;;5001090;28;20048;-81
2023/10/17 04:24:49;;;;;;;1.73;0.52;;;17.40;96.70;;;;;;4978355;28;20105;-81
2023/10/17 04:29:56;;;;;;;1.92;0.52;;;17.30;96.70;;;;;;4998699;28;20061;-81
2023/10/17 04:32:28;;;;;;;2.63;0.70;;;17.40;96.70;;;;;;4999436;28;20093;-81
2023/10/17 04:35:02;;;;;;;2.28;0.50;;;17.30;96.70;;;;;;5018811;28;20522;-81
2023/10/17 04:37:33;;;;;;;1.83;0.70;;;17.30;96.70;;;;;;5002295;28;20050;-81
2023/10/17 04:45:23;;;;;;;2.95;0.70;;;17.40;96.70;;;;;;5002041;28;20073;-81
2023/10/17 04:48:10;;;;;;;2.65;0.50;;;17.40;96.70;;;;;;4995977;28;20042;-81
2023/10/17 04:50:45;;;;;;;2.22;0.60;;;17.40;96.70;;;;;;5006898;28;20598;-81
2023/10/17 04:53:19;;;;;;;1.88;0.80;;;17.40;96.70;;;;;;5004450;28;20041;-80
2023/10/17 04:59:11;;;;;;;;;;;17.40;96.70;;;;;;4998029;28;20144;-81
2023/10/17 05:01:53;;;;;;;1.88;0.60;;;17.40;96.70;;;;;;4998159;28;19925;-81
2023/10/17 05:04:33;;;;;;;1.92;0.55;;;17.40;96.70;;;;;;5002313;28;20104;-81
2023/10/17 06:16:53;;;;;;;4.00;1.45;;;17.10;96.70;;;;;;5017155;28;20072;-81
2023/10/17 06:19:24;;;;;;;5.53;1.73;;;17.10;96.70;;;;;;4994445;28;20423;-81
2023/10/17 06:30:26;;;;;;;4.50;2.00;;;17.00;96.70;;;;;;5024725;28;20523;-81
2023/10/17 06:33:04;;;;;;;7.63;2.10;;;17.00;96.70;;;;;;4981214;28;20503;-81
2023/10/17 06:35:33;;;;;;;11.27;2.30;;;17.10;96.70;;;;;;4981008;28;20049;-81
2023/10/17 06:38:03;;;;;;;4.82;1.75;;;17.20;96.70;;;;;;4965054;28;20050;-80
2023/10/17 06:40:44;;;;;;;4.22;1.58;;;17.20;96.70;;;;;;4971057;28;20101;-81
2023/10/17 06:43:13;;;;;;;7.13;2.28;;;17.30;96.70;;;;;;4978977;28;20053;-81
2023/10/17 06:48:48;;;;;;;4.35;1.55;;;17.40;96.70;;;;;;4980797;28;20378;-79
2023/10/17 06:53:52;;;;;;;7.28;2.20;;;17.50;96.70;;;;;;4972323;28;20569;-78
2023/10/17 06:56:21;;;;;;;5.75;2.25;;;17.60;96.70;;;;;;4969438;28;20480;-80
2023/10/17 06:59:03;;;;;;;8.10;2.20;;;17.60;96.70;;;;;;4972003;28;20066;-81
2023/10/17 07:01:34;;;;;;;5.43;2.50;;;17.70;96.70;;;;;;4994300;28;20142;-80
2023/10/17 07:04:03;;;;;;;8.25;2.25;;;17.80;96.70;;;;;;4976534;28;20455;-83
2023/10/17 07:06:36;;;;;;;7.60;2.60;;;17.80;96.70;;;;;;4980200;28;20070;-79
2023/10/17 07:09:16;;;;;;;9.30;2.40;;;17.90;96.70;;;;;;4975990;28;20101;-81
2023/10/17 07:11:47;;;;;;;6.60;2.72;;;17.90;96.70;;;;;;4968902;28;20077;-81
2023/10/17 07:14:36;;;;;;;10.25;2.55;;;17.90;96.70;;;;;;4978150;28;20053;-82
2023/10/17 07:20:12;;;;;;;12.90;2.58;;;18.00;96.70;;;;;;4973710;28;20050;-84
2023/10/17 07:22:41;;;;;;;7.85;2.03;;;18.10;96.70;;;;;;4975581;28;20055;-81
2023/10/17 07:25:17;;;;;;;7.93;1.85;;;18.20;96.70;;;;;;4984406;28;20039;-80
2023/10/17 07:27:46;;;;;;;5.47;1.80;;;18.20;96.70;;;;;;4985871;28;20038;-80
2023/10/17 07:30:27;;;;;;;7.95;1.52;;;18.30;96.70;;;;;;4983129;28;20583;-83
2023/10/17 07:32:58;;;;;;;5.28;1.73;;;18.30;96.70;;;;;;5013269;28;20053;-81
2023/10/17 07:35:30;;;;;;;9.82;2.90;;;18.40;96.70;;;;;;4997453;28;20048;-81
2023/10/17 07:38:00;;;;;;;6.43;2.38;;;18.40;96.70;;;;;;4994662;28;20037;-81
2023/10/17 07:40:33;;;;;;;7.78;2.03;;;18.50;96.70;;;;;;5019379;28;20120;-82
2023/10/17 07:43:01;;;;;;;3.30;1.33;;;18.60;96.70;;;;;;5006520;28;20045;-82
2023/10/17 07:45:38;;;;;;;8.38;1.98;;;18.60;96.70;;;;;;4999055;28;20038;-82
2023/10/17 07:48:20;;;;;;;3.90;0.70;;;18.70;96.70;;;;;;5003733;28;20054;-83
2023/10/17 07:50:50;;;;;;;3.63;0.82;;;18.80;96.70;;;;;;4996754;28;20057;-82
2023/10/17 07:53:22;;;;;;;3.22;0.70;;;18.80;96.70;;;;;;4991350;28;20048;-83
2023/10/17 07:55:52;;;;;;;4.28;0.80;;;18.90;96.70;;;;;;5006336;28;20079;-82
2023/10/17 07:58:41;;;;;;;2.53;0.63;;;19.00;96.70;;;;;;4999853;28;20046;-82
2023/10/17 08:01:19;;;;;;;3.47;0.65;;;19.00;96.70;;;;;;4990499;28;20045;-83
2023/10/17 08:03:57;;;;;;;1.98;0.60;;;19.10;96.70;;;;;;4997551;28;20388;-81
2023/10/17 08:06:29;;;;;;;4.75;0.80;;;19.10;96.70;;;;;;4984712;28;20095;-81
2023/10/17 08:08:59;;;;;;;2.90;0.63;;;19.20;96.70;;;;;;5013593;28;20053;-83
2023/10/17 08:11:31;;;;;;;5.72;1.30;;;19.20;96.70;;;;;;4999419;28;20092;-82
2023/10/17 08:14:03;;;;;;;4.65;0.88;;;19.30;96.70;;;;;;4992663;28;20045;-81
2023/10/17 08:16:32;;;;;;;2.13;0.80;;;19.40;96.70;;;;;;5001817;28;20076;-83
2023/10/17 08:19:15;;;;;;;3.10;0.55;;;19.40;96.70;;;;;;5026048;28;20041;-83
2023/10/17 08:24:40;;;;;;;3.65;0.47;;;19.60;96.70;;;;;;5020660;28;20507;-83
2023/10/17 08:27:41;;;;;;;3.70;0.60;;;19.60;96.70;;;;;;5003097;28;20054;-83
2023/10/17 08:30:40;;;;;;;2.35;0.50;;;19.70;96.70;;;;;;5024440;28;20180;-80
2023/10/17 08:33:13;;;;;;;1.77;0.70;;;19.70;96.70;;;;;;4973043;28;20056;-82
2023/10/17 08:35:51;;;;;;;3.05;0.75;;;19.70;96.70;;;;;;4980421;28;20047;-83
2023/10/17 08:38:19;;;;;;;2.13;0.90;;;19.80;96.70;;;;;;4983523;28;20050;-83
2023/10/17 08:40:49;;;;;;;2.17;0.70;;;19.90;96.70;;;;;;4973578;28;20146;-83
2023/10/17 08:43:20;;;;;;;3.35;1.30;;;20.00;96.70;;;;;;4981822;28;20473;-83
2023/10/17 08:45:59;;;;;;;2.22;0.70;;;20.00;96.70;;;;;;4983297;28;20050;-83
2023/10/17 08:48:28;;;;;;;1.20;0.50;;;19.90;96.70;;;;;;4979216;28;20048;-84
2023/10/17 08:50:59;;;;;;;2.50;0.50;;;20.00;96.70;;;;;;4982305;28;20141;-81
2023/10/17 08:53:31;;;;;;;4.03;0.60;;;20.10;96.70;;;;;;4970186;28;20050;-81
2023/10/17 08:56:02;;;;;;;3.58;0.93;;;20.20;96.70;;;;;;4971275;28;20098;-83
2023/10/17 08:58:33;;;;;;;2.60;0.50;;;20.30;96.70;;;;;;4976143;28;20140;-82
2023/10/17 09:01:10;;;;;;;3.08;0.73;;;20.40;96.70;;;;;;4965044;28;20051;-81
2023/10/17 09:03:46;;;;;;;5.85;1.23;;;20.40;96.70;;;;;;4974827;28;20635;-80
2023/10/17 09:11:33;;;;;;;4.53;0.70;;;20.80;96.70;;;;;;4985614;28;20057;-83
2023/10/17 09:14:17;;;;;;;2.25;0.70;;;20.90;96.70;;;;;;4973982;28;20051;-83
2023/10/17 09:16:50;;;;;;;2.88;0.70;;;20.90;96.70;;;;;;4981477;28;20056;-82
2023/10/17 09:19:21;;;;;;;1.80;0.90;;;21.00;96.70;;;;;;4981028;28;20053;-82
2023/10/17 09:21:50;;;;;;;3.42;1.15;;;21.00;96.70;;;;;;4971129;28;20047;-84
2023/10/17 09:24:32;;;;;;;3.17;0.98;;;21.10;96.70;;;;;;4982917;28;20050;-84
2023/10/17 09:27:06;;;;;;;2.03;0.68;;;21.30;96.70;;;;;;4979185;28;20043;-84
2023/10/17 09:29:49;;;;;;;2.95;0.75;;;21.40;96.70;;;;;;4980545;28;20046;-84
2023/10/17 09:32:34;;;;;;;2.08;0.70;;;21.50;96.70;;;;;;4998742;28;20419;-84
2023/10/17 09:35:10;;;;;;;4.50;1.17;;;21.50;96.70;;;;;;5007213;28;20492;-84
2023/10/17 09:37:42;;;;;;;3.92;0.98;;;21.60;96.70;;;;;;4992456;28;20505;-83
2023/10/17 09:40:12;;;;;;;2.10;0.40;;;21.70;96.70;;;;;;5007936;28;20058;-83
2023/10/17 09:42:44;;;;;;;4.22;1.00;;;21.60;96.70;;;;;;5002760;28;20073;-83
2023/10/17 09:45:15;;;;;;;3.38;0.95;;;21.70;96.70;;;;;;4998851;28;20092;-83
2023/10/17 09:48:04;;;;;;;2.83;0.70;;;21.80;96.70;;;;;;5000468;28;20416;-81
2023/10/17 09:50:34;;;;;;;2.03;0.57;;;21.90;96.70;;;;;;5000511;28;20042;-81
2023/10/17 09:53:14;;;;;;;4.32;0.73;;;22.00;96.70;;;;;;5003236;28;20098;-81
2023/10/17 09:55:47;;;;;;;2.38;0.70;;;22.10;96.70;;;;;;5007428;28;20038;-81
2023/10/17 09:58:21;;;;;;;2.92;0.80;;;22.10;96.70;;;;;;5007453;28;20057;-81
2023/10/17 10:00:53;;;;;;;2.45;0.77;;;22.10;96.70;;;;;;4996543;28;20135;-81
2023/10/17 10:03:24;;;;;;;3.08;0.70;;;22.20;96.70;;;;;;4989336;28;20238;-81
2023/10/17 10:05:53;;;;;;;2.33;0.50;;;22.20;96.70;;;;;;5006063;28;20053;-81
2023/10/17 10:08:32;;;;;;;2.80;0.75;;;22.40;96.70;;;;;;4980967;28;20101;-80
2023/10/17 10:11:03;;;;;;;1.58;0.60;;;22.50;96.70;;;;;;5001748;28;20054;-80
2023/10/17 10:13:42;;;;;;;2.28;0.80;;;22.60;96.70;;;;;;5002217;28;20046;-81
2023/10/17 10:16:11;;;;;;;3.05;0.68;;;22.70;96.70;;;;;;4997823;28;20054;-81
2023/10/17 10:18:57;;;;;;;2.17;0.65;;;22.60;96.70;;;;;;4997351;28;20632;-81
2023/10/17 10:22:00;;;;;;;2.65;0.93;;;22.70;96.70;;;;;;4973365;28;20057;-82
2023/10/17 10:24:31;;;;;;;3.47;0.75;;;22.70;96.70;;;;;;4977962;28;20504;-81
2023/10/17 10:27:24;;;;;;;3.63;0.65;;;22.80;96.70;;;;;;5007093;28;20467;-81
2023/10/17 10:29:54;;;;;;;2.30;0.85;;;23.10;96.70;;;;;;4997328;28;20435;-82
2023/10/17 10:32:33;;;;;;;2.08;0.50;;;23.20;96.70;;;;;;5014341;28;20053;-81
2023/10/17 10:35:03;;;;;;;3.20;0.80;;;23.20;96.70;;;;;;5006431;28;20052;-81
2023/10/17 10:37:32;;;;;;;3.97;0.90;;;23.10;96.70;;;;;;4986039;28;20144;-81
2023/10/17 10:40:36;;;;;;;3.15;0.70;;;23.00;96.70;;;;;;5017786;28;20041;-81
2023/10/17 10:43:01;;;;;;;4.25;0.90;;;23.10;96.70;;;;;;5006177;28;20053;-81
2023/10/17 10:45:32;;;;;;;2.42;0.60;;;23.10;96.70;;;;;;5027524;28;20648;-81
2023/10/17 10:48:04;;;;;;;2.60;1.00;;;23.00;96.70;;;;;;4993907;28;20612;-81
2023/10/17 10:50:34;;;;;;;1.27;0.45;;;23.00;96.70;;;;;;5006445;28;20057;-81
2023/10/17 10:53:03;;;;;;;4.20;0.90;;;23.10;96.70;;;;;;5005316;28;20041;-82
2023/10/17 10:55:32;;;;;;;3.42;0.93;;;23.20;96.70;;;;;;5002571;28;20710;-82
2023/10/17 10:58:03;;;;;;;6.05;1.25;;;23.10;96.70;;;;;;5017712;28;20448;-82
2023/10/17 11:00:32;;;;;;;3.42;0.80;;;23.10;96.70;;;;;;5000207;28;20052;-79
2023/10/17 11:03:01;;;;;;;2.78;0.70;;;23.20;96.70;;;;;;5026119;28;20055;-81
2023/10/17 11:05:29;;;;;;;2.45;0.55;;;23.40;96.70;;;;;;4987982;28;20053;-81
2023/10/17 11:08:01;;;;;;;3.38;0.88;;;23.60;96.70;;;;;;5006565;28;20471;-81
2023/10/17 11:10:31;;;;;;;3.30;0.95;;;23.60;96.70;;;;;;4984453;28;20056;-82
2023/10/17 11:13:01;;;;;;;3.95;0.90;;;23.60;96.70;;;;;;5010117;28;20049;-81
2023/10/17 11:15:46;;;;;;;2.42;0.82;;;23.70;96.70;;;;;;4981402;28;20076;-80
2023/10/17 11:18:19;;;;;;;2.55;0.70;;;23.80;96.70;;;;;;5005699;28;20140;-81
2023/10/17 11:20:55;;;;;;;3.40;0.70;;;24.00;96.70;;;;;;5022201;28;20053;-80
2023/10/17 11:23:27;;;;;;;3.03;0.80;;;24.10;96.70;;;;;;5000874;28;20049;-80
2023/10/17 11:25:59;;;;;;;3.33;0.90;;;24.10;96.70;;;;;;5002579;28;20053;-81
2023/10/17 11:28:51;;;;;;;2.33;0.70;;;24.10;96.70;;;;;;4989701;28;20057;-80
2023/10/17 11:31:22;;;;;;;2.15;0.70;;;24.20;96.70;;;;;;4998465;28;20057;-82
2023/10/17 11:33:55;;;;;;;1.48;0.70;;;24.30;96.70;;;;;;5000436;28;20136;-81
2023/10/17 11:36:24;;;;;;;4.80;0.70;;;24.50;96.70;;;;;;4976313;28;20692;-82
2023/10/17 11:38:56;;;;;;;2.65;1.02;;;24.60;96.70;;;;;;4997813;28;20053;-82
2023/10/17 11:41:38;;;;;;;3.25;1.00;;;24.60;96.70;;;;;;4970997;28;20058;-82
2023/10/17 11:44:10;;;;;;;4.22;0.73;;;24.70;96.70;;;;;;4979819;28;20046;-83
2023/10/17 11:46:38;;;;;;;4.38;0.95;;;24.80;96.70;;;;;;4972124;28;20054;-83
2023/10/17 11:52:01;;;;;;;3.30;0.95;;;25.00;96.70;;;;;;5001891;28;20051;-84
2023/10/17 11:54:29;;;;;;;1.40;0.60;;;25.00;96.70;;;;;;4994692;28;20160;-83
2023/10/17 11:57:16;;;;;;;5.13;1.27;;;24.80;96.70;;;;;;5004966;28;20037;-83
2023/10/17 11:59:56;;;;;;;3.22;0.90;;;24.80;96.70;;;;;;4984315;28;20618;-83
2023/10/17 12:02:25;;;;;;;3.17;0.82;;;24.90;96.70;;;;;;4982017;28;20070;-83
2023/10/17 12:04:53;;;;;;;3.47;0.73;;;25.00;96.70;;;;;;5003754;28;20452;-83
2023/10/17 12:07:22;;;;;;;4.13;1.10;;;25.20;96.70;;;;;;4995742;28;20060;-83
2023/10/17 12:09:53;;;;;;;5.05;1.00;;;25.30;96.70;;;;;;4982333;28;20587;-83
2023/10/17 12:12:22;;;;;;;4.50;0.93;;;25.40;96.70;;;;;;4983744;28;20053;-83
2023/10/17 12:14:51;;;;;;;1.67;0.70;;;25.50;96.70;;;;;;4995997;28;20129;-84
2023/10/17 12:17:23;;;;;;;3.15;0.90;;;25.50;96.70;;;;;;4985659;28;20054;-84
2023/10/17 12:19:53;;;;;;;4.30;1.25;;;25.40;96.70;;;;;;4998542;28;20058;-84
2023/10/17 12:22:22;;;;;;;1.95;0.90;;;25.50;96.70;;;;;;4980839;28;20049;-84
2023/10/17 12:24:51;;;;;;;3.88;0.85;;;25.60;96.70;;;;;;4999733;28;20037;-83
2023/10/17 12:27:20;;;;;;;3.88;1.00;;;25.70;96.70;;;;;;4989789;28;20047;-84
2023/10/17 12:29:48;;;;;;;4.03;1.05;;;25.80;96.70;;;;;;4997593;28;20053;-84
2023/10/17 12:32:17;;;;;;;1.98;0.80;;;25.90;96.70;;;;;;5003552;28;20058;-84
2023/10/17 12:34:49;;;;;;;2.65;1.05;;;25.90;96.70;;;;;;5004881;28;20046;-84
2023/10/17 12:37:17;;;;;;;6.45;1.30;;;25.80;96.70;;;;;;4993394;28;20046;-84
2023/10/17 12:39:49;;;;;;;4.57;0.65;;;25.80;96.70;;;;;;5002847;28;20046;-84
2023/10/17 12:42:19;;;;;;;1.90;0.80;;;25.50;96.70;;;;;;4997356;28;20121;-84
2023/10/17 12:44:47;;;;;;;3.83;1.10;;;25.30;96.70;;;;;;4998747;28;20042;-84
2023/10/17 12:47:16;;;;;;;3.63;0.82;;;25.30;96.70;;;;;;4986461;28;20043;-84
2023/10/17 12:49:46;;;;;;;7.00;1.17;;;25.30;96.70;;;;;;5000630;28;20096;-83
2023/10/17 12:52:14;;;;;;;5.43;1.00;;;25.50;96.70;;;;;;5004737;28;20056;-84
2023/10/17 12:54:42;;;;;;;2.80;1.17;;;25.60;96.70;;;;;;4988459;28;20050;-84
2023/10/17 12:57:14;;;;;;;3.78;0.95;;;25.70;96.70;;;;;;4996588;28;20053;-84
2023/10/17 12:59:42;;;;;;;4.97;0.90;;;25.90;96.70;;;;;;5006042;28;20046;-83
2023/10/17 13:02:10;;;;;;;3.53;0.88;;;26.00;96.70;;;;;;4992663;28;20057;-84
2023/10/17 13:04:40;;;;;;;4.13;0.88;;;26.00;96.70;;;;;;4999432;28;20038;-84
2023/10/17 13:07:11;;;;;;;3.88;1.30;;;25.90;96.70;;;;;;4972816;28;20512;-83
2023/10/17 13:09:41;;;;;;;3.80;0.88;;;26.10;96.70;;;;;;5006532;28;20066;-83
2023/10/17 13:12:09;;;;;;;3.47;0.93;;;26.20;96.70;;;;;;5002224;28;20050;-84
2023/10/17 13:14:37;;;;;;;4.95;1.63;;;26.00;96.70;;;;;;5000936;28;20129;-84
2023/10/17 13:17:09;;;;;;;4.47;0.73;;;25.90;96.70;;;;;;5004399;28;20451;-83
2023/10/17 13:19:43;;;;;;;3.38;0.77;;;25.80;96.70;;;;;;4992231;28;20054;-84
2023/10/17 13:22:16;;;;;;;3.80;1.00;;;25.80;96.70;;;;;;4992502;28;20129;-84
2023/10/17 13:24:45;;;;;;;2.85;0.90;;;25.80;96.70;;;;;;5004903;28;20046;-83
2023/10/17 13:27:13;;;;;;;3.13;0.90;;;25.80;96.70;;;;;;4987971;28;20108;-84
2023/10/17 13:29:48;;;;;;;2.78;0.90;;;25.80;96.70;;;;;;5000899;28;20923;-83
2023/10/17 13:32:16;;;;;;;2.60;0.73;;;25.60;96.70;;;;;;5007493;28;20057;-84
2023/10/17 13:34:46;;;;;;;2.60;1.10;;;25.50;96.70;;;;;;5002466;28;20042;-83
2023/10/17 13:37:15;;;;;;;2.33;0.90;;;25.40;96.70;;;;;;4980899;28;20059;-84
2023/10/17 13:39:43;;;;;;;3.85;0.98;;;25.40;96.70;;;;;;4998655;28;20055;-85
2023/10/17 13:42:11;;;;;;;5.75;1.17;;;25.30;96.70;;;;;;4998667;28;20041;-85
2023/10/17 13:44:41;;;;;;;3.63;1.02;;;25.30;96.70;;;;;;5000946;28;20701;-85
2023/10/17 13:47:11;;;;;;;3.83;0.80;;;25.30;96.70;;;;;;4975574;28;20100;-85
2023/10/17 13:49:39;;;;;;;3.60;1.13;;;25.30;96.70;;;;;;4994405;28;20060;-84
2023/10/17 13:52:08;;;;;;;4.57;1.00;;;25.40;96.70;;;;;;5009029;28;20115;-83
2023/10/17 13:54:39;;;;;;;2.15;0.80;;;25.40;96.70;;;;;;5003173;28;20121;-84
2023/10/17 13:57:09;;;;;;;4.80;1.10;;;25.50;96.70;;;;;;5006688;28;20740;-83
2023/10/17 13:59:46;;;;;;;3.20;0.75;;;25.50;96.70;;;;;;5001245;28;20134;-84
2023/10/17 14:02:17;;;;;;;6.97;1.15;;;25.40;96.70;;;;;;5004381;28;20045;-84
2023/10/17 14:04:46;;;;;;;3.42;0.95;;;25.40;96.70;;;;;;4989024;28;20492;-84
2023/10/17 14:07:14;;;;;;;3.03;1.05;;;25.30;96.70;;;;;;5001117;28;20042;-84
2023/10/17 14:09:43;;;;;;;3.15;0.95;;;25.30;96.70;;;;;;5006996;28;20057;-84
2023/10/17 14:12:11;;;;;;;3.17;0.98;;;25.20;96.70;;;;;;4993248;28;20090;-83
2023/10/17 14:14:39;;;;;;;3.70;0.85;;;25.00;96.70;;;;;;4983695;28;20054;-84
2023/10/17 14:17:07;;;;;;;2.47;0.85;;;25.00;96.70;;;;;;4994598;28;20035;-84
2023/10/17 14:27:24;;;;;;;1.88;0.80;;;25.00;96.70;;;;;;5000927;28;20499;-83
2023/10/17 14:29:53;;;;;;;3.83;0.90;;;25.00;96.70;;;;;;5007302;28;20049;-83
2023/10/17 14:32:22;;;;;;;4.10;1.23;;;24.90;96.70;;;;;;4999106;28;20120;-84
2023/10/17 14:34:50;;;;;;;6.57;1.10;;;24.80;96.70;;;;;;5000995;28;20436;-83
2023/10/17 14:37:17;;;;;;;5.78;1.17;;;24.70;96.70;;;;;;5005274;28;20042;-84
2023/10/17 14:39:46;;;;;;;1.83;0.90;;;24.70;96.70;;;;;;4997960;28;20046;-84
2023/10/17 14:42:14;;;;;;;5.30;1.13;;;24.60;96.70;;;;;;4989425;28;20042;-83
2023/10/17 14:44:46;;;;;;;2.63;1.17;;;24.60;96.70;;;;;;4973376;28;20046;-83
2023/10/17 14:47:14;;;;;;;6.65;1.20;;;24.60;96.70;;;;;;5031533;28;20073;-83
2023/10/17 14:49:42;;;;;;;4.18;0.98;;;24.50;96.70;;;;;;5007237;28;20664;-84
2023/10/17 14:52:11;;;;;;;2.63;0.90;;;24.50;96.70;;;;;;5008090;28;20587;-83
2023/10/17 14:54:40;;;;;;;3.15;0.70;;;24.40;96.70;;;;;;5006424;28;20081;-83
2023/10/17 14:57:09;;;;;;;5.20;1.10;;;24.40;96.70;;;;;;5000108;28;20708;-84
2023/10/17 14:59:44;;;;;;;3.35;1.10;;;24.30;96.70;;;;;;4981939;28;20125;-84
2023/10/17 15:02:14;;;;;;;2.50;1.05;;;24.30;96.70;;;;;;5004796;28;20492;-84
2023/10/17 15:04:42;;;;;;;2.10;1.23;;;24.20;96.70;;;;;;4997013;28;20566;-84
2023/10/17 15:07:12;;;;;;;3.88;1.08;;;24.20;96.70;;;;;;4988924;28;20056;-84
2023/10/17 15:09:40;;;;;;;5.28;1.25;;;24.20;96.70;;;;;;4998401;28;20050;-84
2023/10/17 15:12:08;;;;;;;4.00;1.08;;;24.20;96.70;;;;;;4988080;28;20048;-83
2023/10/17 15:14:36;;;;;;;5.28;1.17;;;24.20;96.70;;;;;;5007333;28;20614;-84
2023/10/17 15:17:04;;;;;;;3.17;0.80;;;24.20;96.70;;;;;;5008349;28;20113;-83
2023/10/17 15:19:34;;;;;;;5.13;1.23;;;24.20;96.70;;;;;;5008320;28;20044;-84
2023/10/17 15:22:03;;;;;;;4.82;1.25;;;24.30;96.70;;;;;;5006664;28;20419;-84
2023/10/17 15:24:31;;;;;;;3.55;1.27;;;24.20;96.70;;;;;;5005227;28;20511;-84
2023/10/17 15:27:01;;;;;;;3.70;0.98;;;24.20;96.70;;;;;;4998227;28;20048;-83